Latest Weather Observations for Bushy Park

IDT60801

Issued at 10:02 pm EDT Monday 27 February 2017 (issued every 30 minutes, with the page automatically refreshed every 10 minutes)

About weather observations | Map of weather stations | Latest weather observations for TAS | Other Formats
Station Details ID: 095003 Name: BUSHY PARK (BUSHY PARK ESTATES) Lat: -42.71 Lon: 146.90 Height: 27.0 m
Data from the previous 72 hours. | See also: Recent months at Bushy Park
Date/Time
EDT
Temp
°C
App
Temp
°C
Dew
Point
°C
Rel
Hum
%
Delta-T
°C
Wind Press
QNH
hPa
Press
MSL
hPa
Rain since
9am
mm
Dir  Spd
km/h
Gust
km/h
Spd
kts
Gust
kts
27/10:00pm 16.1 15.2 11.3 73 2.6 N 7 11 4 6 - - 0.0
27/09:30pm 16.7 15.0 12.4 76 2.4 N 13 15 7 8 - - 0.0
27/09:00pm 18.9 17.9 10.9 59 4.3 N 7 11 4 6 - - 0.0
27/08:30pm 19.6 17.3 11.9 61 4.3 NNE 15 19 8 10 - - 0.0
27/08:00pm 22.2 20.5 12.6 54 5.5 N 13 17 7 9 - - 0.0
27/07:30pm 25.0 22.0 10.8 41 7.9 NE 17 26 9 14 - - 0.0
27/07:00pm 26.4 22.8 10.0 35 9.1 NE 19 26 10 14 - - 0.0
27/06:30pm 27.4 25.2 9.5 32 9.9 SE 11 17 6 9 - - 0.0
27/06:00pm 28.2 25.6 7.8 27 11.0 SE 11 15 6 8 - - 0.0
27/05:30pm 28.2 26.1 8.4 28 10.8 ESE 9 17 5 9 - - 0.0
27/05:00pm 28.7 26.4 7.3 26 11.5 SSE 9 15 5 8 - - 0.0
27/04:30pm 28.2 25.5 7.5 27 11.1 SE 11 15 6 8 - - 0.0
27/04:00pm 28.8 26.5 7.4 26 11.5 S 9 13 5 7 - - 0.0
27/03:30pm 27.5 24.7 6.9 27 10.9 S 11 19 6 10 - - 0.0
27/03:00pm 27.4 25.4 6.4 26 11.0 NNE 6 15 3 8 - - 0.0
27/02:30pm 25.8 23.4 6.9 30 9.9 ENE 9 13 5 7 - - 0.0
27/02:00pm 25.1 22.4 7.4 32 9.3 SSE 11 13 6 7 - - 0.0
27/01:30pm 24.7 22.6 8.1 34 8.8 NE 9 15 5 8 - - 0.0
27/01:00pm 24.0 22.2 7.8 35 8.6 NNE 7 13 4 7 - - 0.0
27/12:30pm 22.9 20.5 7.2 36 8.1 NE 9 13 5 7 - - 0.0
27/12:00pm 22.5 19.5 5.8 34 8.4 N 11 17 6 9 - - 0.0
27/11:30am 20.6 18.2 7.0 41 6.9 NNW 9 11 5 6 - - 0.0
27/11:00am 18.9 17.1 9.3 53 5.1 N 9 15 5 8 - - 0.0
27/10:30am 17.3 16.0 9.8 61 3.9 WNW 7 11 4 6 - - 0.0
27/10:00am 15.7 14.0 9.8 68 3.1 N 9 11 5 6 - - 0.0
27/09:30am 14.0 12.8 10.2 78 2.0 N 7 11 4 6 - - 0.0
27/09:00am 12.1 10.7 9.6 85 1.3 N 7 9 4 5 - - 0.0
27/08:30am 10.0 8.4 8.8 92 0.6 N 7 9 4 5 - - 0.0
27/08:00am 8.5 8.1 8.1 97 0.2 CALM 0 0 0 0 - - 0.0
27/07:30am 6.4 5.5 6.0 97 0.2 CALM 0 0 0 0 - - 0.0
27/07:00am 6.0 3.9 5.8 99 0.1 NNW 6 9 3 5 - - 0.0
27/06:30am 5.9 4.9 5.5 97 0.2 CALM 0 0 0 0 - - 0.0
27/06:00am 6.2 4.1 5.8 97 0.2 W 6 7 3 4 - - 0.0
27/05:30am 6.8 5.9 6.1 95 0.3 CALM 0 0 0 0 - - 0.0
27/05:00am 7.4 6.8 7.2 99 0.1 CALM 0 0 0 0 - - 0.0
27/04:30am 7.3 5.8 6.7 96 0.3 WSW 4 9 2 5 - - 0.0
27/04:00am 7.9 6.1 7.0 94 0.4 NNW 6 7 3 4 - - 0.0
27/03:30am 7.9 7.2 7.0 94 0.4 CALM 0 0 0 0 - - 0.0
27/03:00am 8.6 8.0 7.6 93 0.5 CALM 0 0 0 0 - - 0.0
27/02:30am 8.8 8.3 8.0 95 0.4 CALM 0 0 0 0 - - 0.0
27/02:00am 9.3 7.8 8.3 93 0.5 W 6 11 3 6 - - 0.0
27/01:30am 10.0 8.6 9.0 93 0.5 WNW 6 9 3 5 - - 0.0
27/01:00am 10.9 10.1 9.5 91 0.7 NW 4 11 2 6 - - 0.0
27/12:30am 11.5 10.2 9.9 90 0.8 WNW 7 9 4 5 - - 0.0
27/12:00am 11.9 12.0 10.0 88 1.0 CALM 0 0 0 0 - - 0.0
 
Date/Time
EDT
Temp
°C
App
Temp
°C
Dew
Point
°C
Rel
Hum
%
Delta-T
°C
Wind Press
QNH
hPa
Press
MSL
hPa
Rain since
9am
mm
Dir  Spd
km/h
Gust
km/h
Spd
kts
Gust
kts
26/11:30pm 12.9 12.3 10.4 85 1.3 NE 4 9 2 5 - - 0.0
26/11:00pm 14.3 13.6 10.1 76 2.2 E 4 7 2 4 - - 0.0
26/10:30pm 14.6 14.4 10.4 76 2.2 S 2 7 1 4 - - 0.0
26/10:00pm 16.2 14.8 11.0 71 2.8 SSE 9 15 5 8 - - 0.0
26/09:30pm 17.5 15.1 10.2 62 3.9 S 13 19 7 10 - - 0.0
26/09:00pm 18.2 14.9 9.5 57 4.6 S 17 22 9 12 - - 0.0
26/08:30pm 19.1 14.8 9.3 53 5.2 SSE 22 33 12 18 - - 0.0
26/08:00pm 19.6 15.9 9.3 51 5.4 SSE 19 28 10 15 - - 0.0
26/07:30pm 20.8 16.8 9.0 46 6.2 SSE 20 30 11 16 - - 0.0
26/07:00pm 21.8 17.9 9.4 45 6.7 SSE 20 30 11 16 - - 0.0
26/06:30pm 23.1 18.6 8.6 39 7.7 S 22 30 12 16 - - 0.0
26/06:00pm 24.3 22.1 7.8 34 8.7 SE 9 20 5 11 - - 0.0
26/05:30pm 24.7 22.9 7.9 34 8.9 SSE 7 11 4 6 - - 0.0
26/05:00pm 24.4 22.9 9.0 37 8.3 N 7 11 4 6 - - 0.0
26/04:30pm 25.4 22.6 5.3 27 10.2 NE 9 15 5 8 - - 0.0
26/04:00pm 24.7 22.7 7.1 32 9.2 WNW 7 11 4 6 - - 0.0
26/03:30pm 24.9 22.9 7.1 32 9.3 SSE 7 9 4 5 - - 0.0
26/03:00pm 23.8 20.9 6.4 32 8.9 E 11 17 6 9 - - 0.0
26/02:30pm 23.1 20.5 5.9 33 8.7 N 9 13 5 7 - - 0.0
26/02:00pm 22.4 20.1 5.6 33 8.4 E 7 17 4 9 - - 0.0
26/01:30pm 22.5 20.2 7.4 37 7.8 N 9 15 5 8 - - 0.0
26/01:00pm 20.8 17.8 7.8 43 6.7 NNE 13 19 7 10 - - 0.0
26/12:30pm 20.9 18.8 8.2 44 6.6 N 9 17 5 9 - - 0.0
26/12:00pm 19.2 17.5 8.3 49 5.6 NE 7 9 4 5 - - 0.0
26/11:30am 18.0 15.9 8.4 53 4.9 NNE 9 13 5 7 - - 0.0
26/11:00am 16.2 14.5 8.2 59 4.1 N 7 13 4 7 - - 0.0
26/10:30am 14.4 12.2 8.0 65 3.2 NE 9 13 5 7 - - 0.0
26/10:00am 13.2 11.1 6.8 65 3.1 NNE 7 11 4 6 - - 0.0
26/09:30am 12.3 10.3 7.2 71 2.5 NE 7 9 4 5 - - 0.0
26/09:00am 10.2 8.3 6.6 78 1.7 NNE 6 7 3 4 - - 0.2
26/08:30am 8.6 6.1 6.7 88 0.9 N 9 11 5 6 - - 0.2
26/08:00am 7.2 4.9 5.9 91 0.6 NW 7 9 4 5 - - 0.2
26/07:30am 5.5 4.0 4.8 95 0.3 N 2 9 1 5 - - 0.2
26/07:00am 4.5 3.1 3.8 95 0.3 CALM 0 0 0 0 - - 0.2
26/06:30am 5.0 2.4 4.3 95 0.3 NNW 7 9 4 5 - - 0.2
26/06:00am 5.5 3.2 4.6 94 0.4 NNW 6 11 3 6 - - 0.2
26/05:30am 5.1 2.7 4.4 95 0.3 NW 6 7 3 4 - - 0.2
26/05:00am 5.2 3.6 4.5 95 0.3 NNW 2 7 1 4 - - 0.2
26/04:30am 5.6 4.5 4.9 95 0.3 CALM 0 0 0 0 - - 0.2
26/04:00am 5.7 3.4 4.8 94 0.4 N 6 7 3 4 - - 0.2
26/03:30am 5.4 2.5 4.5 94 0.4 WSW 9 11 5 6 - - 0.2
26/03:00am 6.2 5.1 5.3 94 0.4 CALM 0 0 0 0 - - 0.2
26/02:30am 6.0 4.1 5.1 94 0.4 W 4 7 2 4 - - 0.2
26/02:00am 6.9 5.9 5.8 93 0.5 CALM 0 0 0 0 - - 0.2
26/01:30am 6.9 4.6 5.6 91 0.6 WSW 7 11 4 6 - - 0.2
26/01:00am 7.5 5.5 6.2 91 0.6 W 6 7 3 4 - - 0.2
26/12:30am 8.2 6.1 6.5 89 0.8 NW 7 11 4 6 - - 0.2
26/12:00am 9.2 8.5 7.1 87 1.0 CALM 0 0 0 0 - - 0.2
 
Date/Time
EDT
Temp
°C
App
Temp
°C
Dew
Point
°C
Rel
Hum
%
Delta-T
°C
Wind Press
QNH
hPa
Press
MSL
hPa
Rain since
9am
mm
Dir  Spd
km/h
Gust
km/h
Spd
kts
Gust
kts
25/11:30pm 10.4 9.0 7.1 80 1.6 E 4 7 2 4 - - 0.2
25/11:00pm 12.0 8.7 6.3 68 2.7 SSE 13 19 7 10 - - 0.2
25/10:30pm 12.7 9.0 6.2 64 3.1 SSE 15 22 8 12 - - 0.2
25/10:00pm 13.0 8.4 6.3 64 3.2 SSE 20 28 11 15 - - 0.2
25/09:30pm 13.7 8.5 5.7 58 3.8 SSE 22 30 12 16 - - 0.2
25/09:00pm 14.3 8.7 5.5 55 4.2 S 24 33 13 18 - - 0.2
25/08:30pm 14.8 9.2 5.4 53 4.5 S 24 37 13 20 - - 0.2
25/08:00pm 15.6 9.9 4.9 49 5.0 SSE 24 33 13 18 - - 0.2
25/07:30pm 16.4 9.9 4.9 46 5.5 SSE 28 35 15 19 - - 0.2
25/07:00pm 17.8 11.3 4.7 42 6.3 S 28 37 15 20 - - 0.2
25/06:59pm 17.9 11.4 4.9 42 6.2 S 28 37 15 20 - - 0.2
25/06:30pm 20.1 16.3 3.9 34 7.7 S 13 19 7 10 - - 0.2
25/06:00pm 21.9 18.1 -3.7 17 10.7 W 7 15 4 8 - - 0.2
25/05:30pm 21.9 17.8 -3.3 18 10.6 WSW 9 17 5 9 - - 0.2
25/05:00pm 21.6 18.1 1.0 25 9.4 N 9 13 5 7 - - 0.2
25/04:30pm 21.3 18.6 3.5 31 8.5 NE 7 13 4 7 - - 0.2
25/04:00pm 21.4 18.4 2.0 27 9.0 NNW 7 13 4 7 - - 0.2
25/03:30pm 21.1 17.3 4.1 32 8.2 N 13 20 7 11 - - 0.2
25/03:00pm 20.9 17.0 5.2 35 7.7 N 15 24 8 13 - - 0.2
25/02:30pm 19.5 15.8 4.2 36 7.3 NE 13 19 7 10 - - 0.2
25/02:00pm 19.2 16.7 4.6 38 7.0 ENE 7 17 4 9 - - 0.2
25/01:30pm 17.7 14.1 3.1 37 6.7 NNE 11 17 6 9 - - 0.2
25/01:00pm 18.1 14.8 4.3 40 6.6 ENE 11 17 6 9 - - 0.2
25/12:30pm 17.3 14.5 3.4 39 6.4 ESE 7 13 4 7 - - 0.2
25/12:00pm 16.9 13.1 3.7 41 6.1 NNE 13 19 7 10 - - 0.0
25/11:30am 15.8 12.0 3.8 44 5.5 NNE 13 17 7 9 - - 0.0
25/11:00am 15.4 12.2 4.9 49 4.9 NNE 11 19 6 10 - - 0.0
25/10:30am 14.1 11.0 5.5 56 4.1 N 11 17 6 9 - - 0.0
25/10:00am 13.3 10.3 6.0 61 3.5 N 11 17 6 9 - - 0.0
25/09:30am 11.5 9.5 6.9 73 2.2 NNE 7 11 4 6 - - 0.0
25/09:00am 9.8 7.3 6.4 79 1.6 NNW 9 11 5 6 - - 0.0
25/08:30am 8.3 7.1 6.4 88 0.9 ESE 2 9 1 5 - - 0.0
25/08:00am 6.8 5.8 5.7 93 0.5 CALM 0 0 0 0 - - 0.0
25/07:30am 4.2 2.1 4.0 99 0.1 NE 4 7 2 4 - - 0.0
25/07:00am 3.9 2.4 3.2 95 0.3 CALM 0 0 0 0 - - 0.0
25/06:30am 4.0 1.2 3.3 95 0.3 WNW 7 11 4 6 - - 0.0
25/06:00am 4.2 2.8 3.7 97 0.2 CALM 0 0 0 0 - - 0.0
25/05:30am 5.0 2.4 4.3 95 0.3 N 7 13 4 7 - - 0.0
25/05:00am 5.5 2.6 4.6 94 0.4 WSW 9 11 5 6 - - 0.0
25/04:30am 5.3 3.3 4.6 95 0.3 NNW 4 9 2 5 - - 0.0
25/04:00am 6.2 4.0 5.3 94 0.4 WNW 6 9 3 5 - - 0.0
25/03:30am 6.6 4.4 5.3 91 0.6 W 6 11 3 6 - - 0.0
25/03:00am 6.9 5.9 5.6 91 0.6 CALM 0 0 0 0 - - 0.0
25/02:30am 7.5 4.8 5.7 88 0.8 SW 9 13 5 7 - - 0.0
25/02:00am 7.7 4.6 5.7 87 0.9 NNW 11 13 6 7 - - 0.0
25/01:30am 7.7 4.3 5.7 87 0.9 N 13 15 7 8 - - 0.0
25/01:00am 7.1 4.7 5.1 87 0.9 SSW 7 13 4 7 - - 0.0
25/12:30am 8.2 5.4 5.3 82 1.3 SW 9 13 5 7 - - 0.0
25/12:00am 9.0 6.3 5.7 80 1.5 N 9 11 5 6 - - 0.0
 
Date/Time
EDT
Temp
°C
App
Temp
°C
Dew
Point
°C
Rel
Hum
%
Delta-T
°C
Wind Press
QNH
hPa
Press
MSL
hPa
Rain since
9am
mm
Dir  Spd
km/h
Gust
km/h
Spd
kts
Gust
kts
24/11:30pm 9.3 6.0 6.5 83 1.3 WSW 13 20 7 11 - - 0.0
24/11:00pm 10.2 6.8 5.9 74 2.0 W 13 24 7 13 - - 0.0
24/10:30pm 10.1 6.7 6.0 76 1.9 W 13 19 7 10 - - 0.0

Other Formats:

Comma delimited format used in spreadsheet applications
http://www.bom.gov.au/fwo/IDT60801/IDT60801.94964.axf

JavaScript Object Notation format (JSON) in row-major order
http://www.bom.gov.au/fwo/IDT60801/IDT60801.94964.json